Time;durP1;ratioP1;P1;durP2;ratioP2;P2;SDS_P1;SDS_P2;PMS_P1;PMS_P2;Temp;Humidity;BMP_temperature;BMP_pressure;BME280_temperature;BME280_humidity;BME280_pressure;Samples;Min_cycle;Max_cycle;Signal;HPM_P1;HPM_P2
2022/02/27 00:00:25;;;;;;;;;;;;;;;1.23;77.01;103527.03;2056428;28;45554;-62
2022/02/27 00:01:27;;;;;;;;;;;;;;;1.17;77.33;103527.59;2056049;28;36365;-62
2022/02/27 00:02:28;;;;;;;;;;;;;;;1.11;77.21;103529.84;2055839;28;44682;-62
2022/02/27 00:03:30;;;;;;;;;;;;;;;1.11;77.70;103530.78;2055322;28;44134;-62
2022/02/27 00:04:32;;;;;;;;;;;;;;;1.09;77.61;103526.22;2056114;28;46484;-62
2022/02/27 00:05:34;;;;;;;;;;;;;;;1.03;78.03;103531.16;2056558;28;19933;-62
2022/02/27 00:06:35;;;;;;;;;;;;;;;1.00;77.63;103531.88;2055811;28;45624;-62
2022/02/27 00:07:37;;;;;;;;;;;;;;;0.98;78.46;103525.59;2055752;28;45934;-62
2022/02/27 00:08:39;;;;;;;;;;;;;;;0.94;78.60;103529.78;2055350;28;45324;-61
2022/02/27 00:09:40;;;;;;;;;;;;;;;1.06;78.43;103532.25;2055272;28;46538;-61
2022/02/27 00:10:44;;;;;;;;;;;;;;;0.97;77.90;103531.72;2055640;28;44094;-61
2022/02/27 00:11:48;;;;;;;;;;;;;;;0.84;78.28;103527.41;2056334;28;22828;-62
2022/02/27 00:12:50;;;;;;;;;;;;;;;0.81;78.76;103539.50;2055866;28;43629;-62
2022/02/27 00:13:51;;;;;;;;;;;;;;;0.71;78.97;103533.69;2055432;28;44623;-61
2022/02/27 00:14:53;;;;;;;;;;;;;;;0.60;79.56;103532.16;2055445;28;46579;-62
2022/02/27 00:15:57;;;;;;;;;;;;;;;0.57;79.26;103534.59;2056188;28;20417;-61
2022/02/27 00:16:59;;;;;;;;;;;;;;;0.59;79.36;103535.59;2055886;28;45860;-61
2022/02/27 00:18:00;;;;;;;;;;;;;;;0.54;80.23;103539.72;2049331;28;37480;-61
2022/02/27 00:19:02;;;;;;;;;;;;;;;0.62;79.86;103535.78;2047742;28;43279;-62
2022/02/27 00:20:05;;;;;;;;;;;;;;;0.54;80.33;103531.81;2047526;28;45238;-62
2022/02/27 00:21:07;;;;;;;;;;;;;;;0.54;80.38;103534.44;2048594;28;19926;-61
2022/02/27 00:22:09;;;;;;;;;;;;;;;0.49;80.45;103530.63;2047661;28;44368;-61
2022/02/27 00:23:10;;;;;;;;;;;;;;;0.56;80.33;103535.44;2047431;28;41978;-61
2022/02/27 00:24:12;;;;;;;;;;;;;;;0.48;80.36;103539.31;2047749;28;42824;-61
2022/02/27 00:25:14;;;;;;;;;;;;;;;0.49;80.01;103533.25;2047511;28;43754;-61
2022/02/27 00:26:16;;;;;;;;;;;;;;;0.53;79.87;103533.50;2047699;28;45557;-62
2022/02/27 00:27:17;;;;;;;;;;;;;;;0.45;80.15;103531.22;2048811;28;20819;-61
2022/02/27 00:28:19;;;;;;;;;;;;;;;0.42;80.29;103528.44;2054925;28;34627;-62
2022/02/27 00:29:20;;;;;;;;;;;;;;;0.46;80.75;103533.06;2054800;28;44389;-61
2022/02/27 00:30:22;;;;;;;;;;;;;;;0.54;80.03;103531.81;2047664;28;45673;-61
2022/02/27 00:31:23;;;;;;;;;;;;;;;0.66;80.19;103531.59;2047644;28;44954;-61
2022/02/27 00:32:25;;;;;;;;;;;;;;;0.60;79.88;103534.78;2047488;28;44429;-61
2022/02/27 00:33:27;;;;;;;;;;;;;;;0.57;79.10;103535.53;2047433;28;45464;-61
2022/02/27 00:34:28;;;;;;;;;;;;;;;0.52;79.31;103523.81;2047828;28;37464;-61
2022/02/27 00:35:30;;;;;;;;;;;;;;;0.52;80.39;103538.69;2048417;28;19970;-61
2022/02/27 00:36:31;;;;;;;;;;;;;;;0.49;79.88;103535.88;2054659;28;45003;-61
2022/02/27 00:37:34;;;;;;;;;;;;;;;0.59;79.63;103532.97;2047764;28;20034;-61
2022/02/27 00:38:36;;;;;;;;;;;;;;;0.63;79.33;103536.69;2051299;28;44370;-61
2022/02/27 00:39:37;;;;;;;;;;;;;;;0.54;79.67;103529.16;2055590;28;44157;-61
2022/02/27 00:40:41;;;;;;;;;;;;;;;0.56;79.57;103533.69;2063386;28;20811;-61
2022/02/27 00:41:44;;;;;;;;;;;;;;;0.51;79.71;103536.88;2063636;28;19974;-62
2022/02/27 00:42:46;;;;;;;;;;;;;;;0.49;80.15;103536.78;2062838;28;45409;-61
2022/02/27 00:43:48;;;;;;;;;;;;;;;0.53;78.96;103533.50;2062776;28;41235;-61
2022/02/27 00:44:49;;;;;;;;;;;;;;;0.49;79.46;103535.88;2063352;28;43952;-61
2022/02/27 00:45:51;;;;;;;;;;;;;;;0.48;80.46;103534.94;2055545;28;44133;-61
2022/02/27 00:46:56;;;;;;;;;;;;;;;0.50;79.46;103542.97;2056258;28;20063;-61
2022/02/27 00:47:58;;;;;;;;;;;;;;;0.44;80.15;103546.13;2055831;28;20463;-61
2022/02/27 00:48:59;;;;;;;;;;;;;;;0.51;79.33;103534.25;2054359;28;45564;-61
2022/02/27 00:50:01;;;;;;;;;;;;;;;0.46;79.15;103539.22;2063102;28;45966;-61
2022/02/27 00:51:04;;;;;;;;;;;;;;;0.59;79.19;103534.69;2062153;28;45272;-61
2022/02/27 00:52:06;;;;;;;;;;;;;;;0.66;79.00;103539.53;2063086;28;32986;-60
2022/02/27 00:53:08;;;;;;;;;;;;;;;0.58;79.20;103544.34;2055549;28;44571;-61
2022/02/27 00:54:09;;;;;;;;;;;;;;;0.54;78.49;103539.72;2054965;28;44075;-61
2022/02/27 00:55:11;;;;;;;;;;;;;;;0.57;78.73;103535.53;2055121;28;44712;-61
2022/02/27 00:56:13;;;;;;;;;;;;;;;0.57;79.22;103545.16;2055975;28;34570;-61
2022/02/27 00:57:15;;;;;;;;;;;;;;;0.54;79.24;103539.72;2056431;28;20716;-61
2022/02/27 00:58:17;;;;;;;;;;;;;;;0.53;79.09;103535.25;2055686;28;45031;-61
2022/02/27 00:59:19;;;;;;;;;;;;;;;0.54;78.99;103542.34;2055668;28;44221;-61
2022/02/27 01:00:20;;;;;;;;;;;;;;;0.54;79.05;103534.44;2054775;28;44991;-61
2022/02/27 01:01:22;;;;;;;;;;;;;;;0.55;78.92;103530.97;2055488;28;45353;-61
2022/02/27 01:02:24;;;;;;;;;;;;;;;0.60;78.16;103529.53;2055336;28;45488;-61
2022/02/27 01:03:26;;;;;;;;;;;;;;;0.60;78.31;103531.25;2063437;28;19933;-61
2022/02/27 01:04:30;;;;;;;;;;;;;;;0.64;78.55;103536.78;2063376;28;19926;-61
2022/02/27 01:05:34;;;;;;;;;;;;;;;0.56;78.42;103538.06;2055566;28;44420;-62
2022/02/27 01:06:35;;;;;;;;;;;;;;;0.59;78.58;103534.69;2055695;28;19948;-61
2022/02/27 01:07:37;;;;;;;;;;;;;;;0.55;78.81;103542.41;2062240;28;43299;-62
2022/02/27 01:08:39;;;;;;;;;;;;;;;0.51;78.61;103544.78;2053955;28;45959;-61
2022/02/27 01:09:40;;;;;;;;;;;;;;;0.45;79.16;103541.75;2054720;28;44150;-61
2022/02/27 01:10:42;;;;;;;;;;;;;;;0.51;79.53;103542.16;2056260;28;20044;-61
2022/02/27 01:11:44;;;;;;;;;;;;;;;0.51;79.00;103540.41;2055119;28;44382;-61
2022/02/27 01:12:45;;;;;;;;;;;;;;;0.47;79.52;103540.16;2055158;28;23562;-61
2022/02/27 01:13:47;;;;;;;;;;;;;;;0.45;78.96;103539.13;2054975;28;37932;-61
2022/02/27 01:14:48;;;;;;;;;;;;;;;0.43;79.48;103535.50;2062428;28;42892;-61
2022/02/27 01:15:50;;;;;;;;;;;;;;;0.46;79.40;103540.97;2056399;28;20911;-61
2022/02/27 01:16:52;;;;;;;;;;;;;;;0.48;78.91;103534.06;2056716;28;19933;-61
2022/02/27 01:17:58;;;;;;;;;;;;;;;0.55;78.75;103537.13;2055350;28;19997;-61
2022/02/27 01:19:01;;;;;;;;;;;;;;;0.49;79.51;103542.06;2055958;28;20012;-61
2022/02/27 01:20:05;;;;;;;;;;;;;;;0.51;78.71;103540.41;2062799;28;45662;-61
2022/02/27 01:21:07;;;;;;;;;;;;;;;0.48;78.35;103544.59;2062177;28;43493;-61
2022/02/27 01:22:08;;;;;;;;;;;;;;;0.46;78.49;103546.22;2055208;28;41808;-61
2022/02/27 01:23:11;;;;;;;;;;;;;;;0.46;78.97;103544.50;2056020;28;19989;-61
2022/02/27 01:24:12;;;;;;;;;;;;;;;0.45;79.29;103536.50;2062831;28;36420;-61
2022/02/27 01:25:14;;;;;;;;;;;;;;;0.51;79.09;103534.25;2062436;28;45446;-61
2022/02/27 01:26:15;;;;;;;;;;;;;;;0.52;79.03;103531.72;2062037;28;46792;-61
2022/02/27 01:27:17;;;;;;;;;;;;;;;0.44;78.56;103537.31;2063524;28;19937;-61
2022/02/27 01:28:19;;;;;;;;;;;;;;;0.41;78.84;103538.03;2056326;28;45815;-61
2022/02/27 01:29:20;;;;;;;;;;;;;;;0.42;79.53;103538.97;2056958;28;46289;-61
2022/02/27 01:30:23;;;;;;;;;;;;;;;0.44;78.22;103538.22;2057508;28;19930;-61
2022/02/27 01:31:24;;;;;;;;;;;;;;;0.45;78.97;103540.06;2063777;28;47211;-60
2022/02/27 01:32:26;;;;;;;;;;;;;;;0.44;79.39;103539.97;2064653;28;19926;-61
2022/02/27 01:33:28;;;;;;;;;;;;;;;0.45;79.30;103540.06;2057740;28;19942;-61
2022/02/27 01:34:29;;;;;;;;;;;;;;;0.41;78.47;103538.03;2056742;28;46108;-61
2022/02/27 01:35:31;;;;;;;;;;;;;;;0.41;78.27;103543.31;2056519;28;42829;-61
2022/02/27 01:36:32;;;;;;;;;;;;;;;0.44;78.96;103542.59;2056684;28;38715;-61
2022/02/27 01:37:35;;;;;;;;;;;;;;;0.49;78.71;103541.16;2056592;28;20803;-60
2022/02/27 01:38:37;;;;;;;;;;;;;;;0.47;78.25;103543.69;2056322;28;45407;-61
2022/02/27 01:39:38;;;;;;;;;;;;;;;0.52;78.86;103542.25;2064627;28;21732;-61
2022/02/27 01:40:40;;;;;;;;;;;;;;;0.45;78.38;103533.84;2064822;28;25791;-61
2022/02/27 01:41:41;;;;;;;;;;;;;;;0.43;78.51;103531.16;2057114;28;31084;-61
2022/02/27 01:42:43;;;;;;;;;;;;;;;0.47;78.51;103538.44;2064551;28;39820;-61
2022/02/27 01:43:44;;;;;;;;;;;;;;;0.46;78.63;103536.59;2063914;28;45604;-61
2022/02/27 01:44:46;;;;;;;;;;;;;;;0.42;78.32;103528.44;2057188;28;29322;-61
2022/02/27 01:45:50;;;;;;;;;;;;;;;0.38;79.07;103544.03;2057848;28;19922;-60
2022/02/27 01:47:12;;;;;;;;;;;;;;;0.40;78.87;103530.97;2056864;28;44590;-61
2022/02/27 01:48:13;;;;;;;;;;;;;;;0.40;79.14;103536.22;2056416;28;46050;-61
2022/02/27 01:49:15;;;;;;;;;;;;;;;0.42;78.87;103534.59;2056649;28;44410;-61
2022/02/27 01:50:16;;;;;;;;;;;;;;;0.44;79.05;103532.06;2056478;28;44109;-61
2022/02/27 01:51:19;;;;;;;;;;;;;;;0.43;78.31;103533.78;2064976;28;20811;-61
2022/02/27 01:52:20;;;;;;;;;;;;;;;0.41;78.99;103543.31;2063987;28;44255;-61
2022/02/27 01:53:22;;;;;;;;;;;;;;;0.37;79.00;103541.31;2057249;28;19973;-61
2022/02/27 01:54:24;;;;;;;;;;;;;;;0.40;78.37;103537.97;2063382;28;43451;-60
2022/02/27 01:55:26;;;;;;;;;;;;;;;0.37;78.42;103534.31;2063529;28;45558;-61
2022/02/27 01:56:27;;;;;;;;;;;;;;;0.38;78.56;103543.13;2064872;28;19926;-59
2022/02/27 01:57:29;;;;;;;;;;;;;;;0.32;78.75;103541.03;2056475;28;23240;-61
2022/02/27 01:58:32;;;;;;;;;;;;;;;0.42;78.08;103534.59;2047816;28;45788;-61
2022/02/27 01:59:33;;;;;;;;;;;;;;;0.42;78.57;103537.22;2049036;28;19998;-61
2022/02/27 02:00:35;;;;;;;;;;;;;;;0.42;79.17;103531.97;2055436;28;45619;-60
2022/02/27 02:01:36;;;;;;;;;;;;;;;0.36;78.56;103532.50;2056970;28;39541;-61
2022/02/27 02:02:39;;;;;;;;;;;;;;;0.34;79.25;103534.13;2056587;28;19935;-60
2022/02/27 02:03:41;;;;;;;;;;;;;;;0.29;79.12;103535.56;2056532;28;20056;-61
2022/02/27 02:04:45;;;;;;;;;;;;;;;0.30;79.12;103529.47;2064272;28;20847;-61
2022/02/27 02:05:47;;;;;;;;;;;;;;;0.25;79.11;103536.22;2056151;28;42626;-61
2022/02/27 02:06:48;;;;;;;;;;;;;;;0.28;79.42;103532.84;2055660;28;43623;-61
2022/02/27 02:07:51;;;;;;;;;;;;;;;0.33;79.73;103536.69;2064625;28;19925;-61
2022/02/27 02:08:54;;;;;;;;;;;;;;;0.29;78.75;103527.69;2056302;28;19930;-61
2022/02/27 02:09:55;;;;;;;;;;;;;;;0.26;79.36;103527.47;2056546;28;19961;-60
2022/02/27 02:10:59;;;;;;;;;;;;;;;0.28;79.26;103528.47;2064572;28;20803;-61
2022/02/27 02:12:01;;;;;;;;;;;;;;;0.23;79.02;103532.56;2055595;28;46092;-61
2022/02/27 02:13:04;;;;;;;;;;;;;;;0.23;79.29;103534.28;2057094;28;19926;-61
2022/02/27 02:14:06;;;;;;;;;;;;;;;0.20;79.59;103532.38;2056182;28;27921;-61
2022/02/27 02:15:14;;;;;;;;;;;;;;;0.12;79.33;103533.63;2056508;28;34207;-61
2022/02/27 02:16:15;;;;;;;;;;;;;;;0.14;79.86;103538.19;2063911;28;31533;-61
2022/02/27 02:17:17;;;;;;;;;;;;;;;0.19;79.06;103530.56;2063655;28;46660;-61
2022/02/27 02:18:23;;;;;;;;;;;;;;;0.17;79.86;103540.09;2056667;28;20873;-61
2022/02/27 02:19:27;;;;;;;;;;;;;;;0.17;79.25;103534.81;2056321;28;23487;-61
2022/02/27 02:20:43;;;;;;;;;;;;;;;0.11;79.56;103539.72;2064510;28;19930;-61
2022/02/27 02:21:46;;;;;;;;;;;;;;;0.14;79.83;103540.81;2063986;28;30754;-61
2022/02/27 02:22:51;;;;;;;;;;;;;;;0.10;79.44;103532.63;2056920;28;20028;-60
2022/02/27 02:23:52;;;;;;;;;;;;;;;0.05;79.80;103537.59;2063273;28;43257;-61
2022/02/27 02:24:55;;;;;;;;;;;;;;;0.03;80.69;103533.06;2064052;28;19930;-60
2022/02/27 02:25:57;;;;;;;;;;;;;;;0.05;80.64;103534.97;2064549;28;19987;-61
2022/02/27 02:26:58;;;;;;;;;;;;;;;-0.02;80.36;103536.31;2056149;28;19986;-60
2022/02/27 02:28:00;;;;;;;;;;;;;;;-0.04;80.58;103530.03;2056417;28;19930;-61
2022/02/27 02:29:04;;;;;;;;;;;;;;;-0.08;80.54;103528.03;2064536;28;27506;-60
2022/02/27 02:30:09;;;;;;;;;;;;;;;-0.11;80.05;103540.09;2056284;28;19934;-61
2022/02/27 02:31:11;;;;;;;;;;;;;;;-0.15;80.86;103538.09;2048821;28;20029;-61
2022/02/27 02:32:16;;;;;;;;;;;;;;;-0.18;81.53;103535.25;2056445;28;19918;-61
2022/02/27 02:33:18;;;;;;;;;;;;;;;-0.23;81.76;103542.88;2064590;28;20053;-60
2022/02/27 02:34:21;;;;;;;;;;;;;;;-0.29;81.70;103538.09;2063856;28;42727;-61
2022/02/27 02:35:26;;;;;;;;;;;;;;;-0.31;82.10;103536.19;2064802;28;19930;-61
2022/02/27 02:36:28;;;;;;;;;;;;;;;-0.27;81.40;103528.59;2063314;28;44586;-60
2022/02/27 02:37:29;;;;;;;;;;;;;;;-0.31;82.20;103530.94;2056366;28;20704;-60
2022/02/27 02:38:31;;;;;;;;;;;;;;;-0.36;81.82;103528.00;2063996;28;19969;-61
2022/02/27 02:39:33;;;;;;;;;;;;;;;-0.43;82.08;103529.34;2051991;28;20847;-61
2022/02/27 02:40:34;;;;;;;;;;;;;;;-0.44;82.47;103523.97;2055170;28;19962;-61
2022/02/27 02:41:38;;;;;;;;;;;;;;;-0.52;82.32;103526.13;2055714;28;19957;-61
2022/02/27 02:42:46;;;;;;;;;;;;;;;-0.50;82.88;103534.09;2048847;28;19931;-61
2022/02/27 02:43:48;;;;;;;;;;;;;;;-0.51;82.41;103534.94;2056377;28;20816;-61
2022/02/27 02:44:50;;;;;;;;;;;;;;;-0.50;82.50;103528.81;2056455;28;19927;-61
2022/02/27 02:45:52;;;;;;;;;;;;;;;-0.55;82.38;103530.28;2048284;28;20856;-61
2022/02/27 02:46:54;;;;;;;;;;;;;;;-0.53;83.17;103526.94;2056530;28;19927;-61
2022/02/27 02:47:56;;;;;;;;;;;;;;;-0.52;82.76;103533.09;2056626;28;19927;-61
2022/02/27 02:49:04;;;;;;;;;;;;;;;-0.59;82.16;103529.19;2057173;28;19934;-61
2022/02/27 02:50:14;;;;;;;;;;;;;;;-0.66;82.95;103533.13;2056033;28;19997;-61
2022/02/27 02:51:18;;;;;;;;;;;;;;;-0.66;82.49;103535.75;2056227;28;19934;-61
2022/02/27 02:52:20;;;;;;;;;;;;;;;-0.55;83.06;103541.72;2055773;28;19926;-60
2022/02/27 02:53:22;;;;;;;;;;;;;;;-0.56;83.59;103531.06;2048417;28;20398;-59
2022/02/27 02:54:23;;;;;;;;;;;;;;;-0.55;83.17;103527.66;2047971;28;20016;-60
2022/02/27 02:55:25;;;;;;;;;;;;;;;-0.60;83.38;103538.75;2055746;28;44853;-60
2022/02/27 02:56:27;;;;;;;;;;;;;;;-0.62;83.14;103527.25;2056060;28;45373;-61
2022/02/27 02:57:28;;;;;;;;;;;;;;;-0.59;83.46;103529.19;2056320;28;44483;-61
2022/02/27 02:58:30;;;;;;;;;;;;;;;-0.61;82.79;103528.13;2056221;28;43909;-60
2022/02/27 02:59:33;;;;;;;;;;;;;;;-0.54;82.64;103534.72;2056276;28;44270;-61
2022/02/27 03:00:35;;;;;;;;;;;;;;;-0.47;82.98;103526.41;2055676;28;46352;-60
2022/02/27 03:01:37;;;;;;;;;;;;;;;-0.53;82.51;103534.81;2056105;28;43287;-61
2022/02/27 03:02:38;;;;;;;;;;;;;;;-0.34;82.40;103539.56;2056018;28;45352;-61
2022/02/27 03:03:42;;;;;;;;;;;;;;;-0.43;82.26;103531.97;2056035;28;46019;-60
2022/02/27 03:04:44;;;;;;;;;;;;;;;-0.44;82.73;103531.88;2056066;28;43284;-61
2022/02/27 03:05:45;;;;;;;;;;;;;;;-0.44;82.79;103538.03;2056007;28;42610;-60
2022/02/27 03:06:47;;;;;;;;;;;;;;;-0.42;82.83;103540.78;2056010;28;42168;-61
2022/02/27 03:07:49;;;;;;;;;;;;;;;-0.52;82.44;103541.91;2056920;28;19932;-61
2022/02/27 03:08:51;;;;;;;;;;;;;;;-0.47;82.05;103545.72;2055298;28;45799;-60
2022/02/27 03:09:56;;;;;;;;;;;;;;;-0.47;82.58;103535.19;2056542;28;19923;-61
2022/02/27 03:11:00;;;;;;;;;;;;;;;-0.58;82.48;103537.13;2055482;28;42850;-60
2022/02/27 03:12:03;;;;;;;;;;;;;;;-0.58;83.00;103529.25;2055946;28;42873;-60
2022/02/27 03:13:04;;;;;;;;;;;;;;;-0.61;83.38;103534.34;2056915;28;19935;-61
2022/02/27 03:14:07;;;;;;;;;;;;;;;-0.63;82.70;103537.66;2055813;28;45864;-60
2022/02/27 03:15:09;;;;;;;;;;;;;;;-0.68;83.64;103525.91;2055819;28;43974;-60
2022/02/27 03:16:10;;;;;;;;;;;;;;;-0.64;84.13;103534.13;2055995;28;43026;-60
2022/02/27 03:17:12;;;;;;;;;;;;;;;-0.74;84.05;103529.06;2055983;28;44197;-60
2022/02/27 03:18:16;;;;;;;;;;;;;;;-0.68;83.87;103528.56;2057052;28;20784;-61
2022/02/27 03:19:17;;;;;;;;;;;;;;;-0.58;83.83;103528.34;2056249;28;35763;-61
2022/02/27 03:20:19;;;;;;;;;;;;;;;-0.67;83.58;103533.00;2056615;28;42876;-61
2022/02/27 03:21:20;;;;;;;;;;;;;;;-0.71;83.56;103533.63;2055715;28;45241;-61
2022/02/27 03:22:23;;;;;;;;;;;;;;;-0.75;84.17;103529.91;2056891;28;21068;-61
2022/02/27 03:23:25;;;;;;;;;;;;;;;-0.70;84.76;103527.53;2055747;28;44648;-61
2022/02/27 03:24:26;;;;;;;;;;;;;;;-0.78;84.33;103533.22;2055857;28;45028;-61
2022/02/27 03:25:28;;;;;;;;;;;;;;;-0.70;84.16;103532.81;2055909;28;20770;-61
2022/02/27 03:26:30;;;;;;;;;;;;;;;-0.63;83.62;103527.13;2056235;28;19996;-61
2022/02/27 03:27:31;;;;;;;;;;;;;;;-0.57;84.18;103532.81;2055288;28;39140;-60
2022/02/27 03:28:33;;;;;;;;;;;;;;;-0.65;83.18;103528.75;2055760;28;43737;-60
2022/02/27 03:29:35;;;;;;;;;;;;;;;-0.68;83.61;103533.81;2055577;28;45070;-60
2022/02/27 03:30:38;;;;;;;;;;;;;;;-0.66;83.75;103526.97;2056334;28;34694;-60
2022/02/27 03:31:39;;;;;;;;;;;;;;;-0.63;83.54;103529.75;2055527;28;45311;-60
2022/02/27 03:32:46;;;;;;;;;;;;;;;-0.57;83.59;103535.44;2055918;28;45007;-60
2022/02/27 03:33:48;;;;;;;;;;;;;;;-0.57;83.60;103535.44;2055826;28;45585;-60
2022/02/27 03:34:54;;;;;;;;;;;;;;;-0.57;83.66;103532.81;2056406;28;23897;-60
2022/02/27 03:35:56;;;;;;;;;;;;;;;-0.59;83.44;103535.34;2055758;28;34570;-60
2022/02/27 03:36:57;;;;;;;;;;;;;;;-0.49;83.08;103521.03;2055971;28;44168;-61
2022/02/27 03:37:59;;;;;;;;;;;;;;;-0.51;82.94;103525.28;2055913;28;45275;-61
2022/02/27 03:39:02;;;;;;;;;;;;;;;-0.58;82.88;103521.34;2056706;28;21492;-60
2022/02/27 03:40:05;;;;;;;;;;;;;;;-0.61;83.34;103525.50;2056492;28;19989;-61
2022/02/27 03:41:07;;;;;;;;;;;;;;;-0.61;83.54;103525.50;2056086;28;36329;-61
2022/02/27 03:42:09;;;;;;;;;;;;;;;-0.60;83.37;103524.72;2055993;28;44134;-61
2022/02/27 03:43:11;;;;;;;;;;;;;;;-0.61;83.08;103523.81;2056021;28;46414;-60
2022/02/27 03:44:13;;;;;;;;;;;;;;;-0.62;83.29;103523.72;2056032;28;40328;-61
2022/02/27 03:45:15;;;;;;;;;;;;;;;-0.59;83.31;103519.56;2055983;28;43724;-60
2022/02/27 03:46:17;;;;;;;;;;;;;;;-0.56;83.58;103523.19;2055890;28;44524;-60
2022/02/27 03:47:21;;;;;;;;;;;;;;;-0.51;83.76;103513.88;2055947;28;44466;-61
2022/02/27 03:48:22;;;;;;;;;;;;;;;-0.58;83.20;103523.09;2055598;28;46472;-61
2022/02/27 03:49:24;;;;;;;;;;;;;;;-0.60;83.12;103517.72;2056039;28;43067;-60
2022/02/27 03:50:26;;;;;;;;;;;;;;;-0.60;83.54;103524.72;2055046;28;45420;-61
2022/02/27 03:51:28;;;;;;;;;;;;;;;-0.56;83.31;103513.56;2055674;28;46139;-61
2022/02/27 03:52:29;;;;;;;;;;;;;;;-0.64;83.29;103522.69;2055767;28;45670;-60
2022/02/27 03:53:33;;;;;;;;;;;;;;;-0.64;84.06;103525.34;2055610;28;46814;-60
2022/02/27 03:54:36;;;;;;;;;;;;;;;-0.55;83.90;103523.28;2056249;28;19997;-61
2022/02/27 03:55:38;;;;;;;;;;;;;;;-0.56;83.24;103510.94;2055704;28;45298;-60
2022/02/27 03:56:42;;;;;;;;;;;;;;;-0.61;83.35;103523.81;2055797;28;44565;-60
2022/02/27 03:57:43;;;;;;;;;;;;;;;-0.66;84.00;103519.06;2055686;28;45205;-60
2022/02/27 03:58:45;;;;;;;;;;;;;;;-0.68;83.58;103521.59;2055217;28;44934;-60
2022/02/27 03:59:49;;;;;;;;;;;;;;;-0.67;83.80;103517.22;2055394;28;44409;-60
2022/02/27 04:00:55;;;;;;;;;;;;;;;-0.50;83.94;103519.25;2056609;28;20136;-60
2022/02/27 04:01:56;;;;;;;;;;;;;;;-0.51;83.81;103516.50;2055503;28;44904;-61
2022/02/27 04:02:58;;;;;;;;;;;;;;;-0.56;83.81;103523.19;2055725;28;45428;-61
2022/02/27 04:04:00;;;;;;;;;;;;;;;-0.64;83.95;103514.81;2056160;28;37225;-60
2022/02/27 04:05:03;;;;;;;;;;;;;;;-0.70;83.46;103519.66;2055761;28;43347;-60
2022/02/27 04:06:04;;;;;;;;;;;;;;;-0.69;84.58;103522.38;2055575;28;43984;-60
2022/02/27 04:07:06;;;;;;;;;;;;;;;-0.73;84.29;103515.13;2055316;28;44061;-60
2022/02/27 04:08:08;;;;;;;;;;;;;;;-0.72;84.46;103519.53;2055935;28;41814;-60
2022/02/27 04:09:10;;;;;;;;;;;;;;;-0.75;84.34;103516.75;2055517;28;45495;-61
2022/02/27 04:10:12;;;;;;;;;;;;;;;-0.81;84.37;103519.88;2055528;28;45107;-60
2022/02/27 04:11:14;;;;;;;;;;;;;;;-0.83;84.62;103524.09;2055511;28;45162;-60
2022/02/27 04:12:15;;;;;;;;;;;;;;;-0.84;84.23;103522.31;2055642;28;46252;-60
2022/02/27 04:13:17;;;;;;;;;;;;;;;-0.85;85.00;103515.22;2055776;28;43993;-60
2022/02/27 04:14:19;;;;;;;;;;;;;;;-0.83;84.94;103517.94;2056134;28;37433;-60
2022/02/27 04:15:20;;;;;;;;;;;;;;;-0.88;84.89;103524.63;2055520;28;45884;-60
2022/02/27 04:16:23;;;;;;;;;;;;;;;-0.80;85.14;103521.69;2055315;28;45357;-61
2022/02/27 04:17:24;;;;;;;;;;;;;;;-0.83;84.36;103521.47;2055632;28;46771;-60
2022/02/27 04:18:26;;;;;;;;;;;;;;;-0.83;84.88;103518.84;2055641;28;43053;-61
2022/02/27 04:19:27;;;;;;;;;;;;;;;-0.80;84.31;103519.06;2055531;28;43415;-61
2022/02/27 04:20:29;;;;;;;;;;;;;;;-0.81;85.02;103525.16;2055938;28;46286;-60
2022/02/27 04:21:30;;;;;;;;;;;;;;;-0.80;84.63;103515.53;2055527;28;44005;-61
2022/02/27 04:22:32;;;;;;;;;;;;;;;-0.77;84.07;103518.38;2055657;28;45020;-61
2022/02/27 04:23:34;;;;;;;;;;;;;;;-0.74;83.88;103522.91;2055230;28;43058;-61
2022/02/27 04:24:35;;;;;;;;;;;;;;;-0.76;83.91;103517.53;2055442;28;44379;-60
2022/02/27 04:25:37;;;;;;;;;;;;;;;-0.78;83.94;103522.69;2055005;28;37455;-60
2022/02/27 04:26:38;;;;;;;;;;;;;;;-0.78;84.62;103514.81;2055708;28;42913;-61
2022/02/27 04:27:40;;;;;;;;;;;;;;;-0.79;83.91;103517.31;2055099;28;45631;-60
2022/02/27 04:28:41;;;;;;;;;;;;;;;-0.78;83.87;103512.16;2055479;28;38690;-60
2022/02/27 04:29:45;;;;;;;;;;;;;;;-0.78;84.23;103514.81;2055286;28;44790;-60
2022/02/27 04:30:47;;;;;;;;;;;;;;;-0.80;83.94;103516.44;2055863;28;19984;-60
2022/02/27 04:31:49;;;;;;;;;;;;;;;-0.83;84.00;103513.59;2055173;28;44506;-60
2022/02/27 04:32:50;;;;;;;;;;;;;;;-0.85;83.74;103514.31;2055692;28;44060;-60
2022/02/27 04:33:52;;;;;;;;;;;;;;;-0.86;84.29;103510.78;2055464;28;41620;-60
2022/02/27 04:34:53;;;;;;;;;;;;;;;-0.83;84.19;103508.31;2055529;28;42900;-60
2022/02/27 04:35:55;;;;;;;;;;;;;;;-0.86;84.65;103517.75;2055275;28;46612;-60
2022/02/27 04:36:56;;;;;;;;;;;;;;;-0.90;84.28;103511.38;2055604;28;43235;-60
2022/02/27 04:37:58;;;;;;;;;;;;;;;-0.88;84.64;103520.28;2055170;28;45782;-60
2022/02/27 04:38:59;;;;;;;;;;;;;;;-0.94;84.63;103514.63;2055018;28;45669;-60
2022/02/27 04:40:07;;;;;;;;;;;;;;;-0.93;84.40;103515.50;2055633;28;23445;-61
2022/02/27 04:41:08;;;;;;;;;;;;;;;-0.97;84.59;103515.34;2055186;28;46389;-60
2022/02/27 04:42:10;;;;;;;;;;;;;;;-1.00;84.48;103516.84;2055357;28;42392;-61
2022/02/27 04:43:12;;;;;;;;;;;;;;;-1.00;84.93;103520.38;2055358;28;43025;-60
2022/02/27 04:44:13;;;;;;;;;;;;;;;-1.02;85.04;103518.47;2055484;28;46398;-60
2022/02/27 04:45:15;;;;;;;;;;;;;;;-1.01;84.82;103508.03;2055268;28;44532;-60
2022/02/27 04:46:16;;;;;;;;;;;;;;;-1.01;84.80;103518.56;2055259;28;45930;-60
2022/02/27 04:47:18;;;;;;;;;;;;;;;-1.01;84.98;103518.56;2055175;28;45488;-61
2022/02/27 04:48:22;;;;;;;;;;;;;;;-1.02;84.53;103518.47;2056090;28;43353;-60
2022/02/27 04:49:26;;;;;;;;;;;;;;;-1.02;85.07;103526.38;2055320;28;44018;-61
2022/02/27 04:50:28;;;;;;;;;;;;;;;-1.02;85.11;103518.47;2055773;28;43221;-60
2022/02/27 04:51:29;;;;;;;;;;;;;;;-1.06;85.31;103521.69;2055343;28;45754;-60
2022/02/27 04:52:31;;;;;;;;;;;;;;;-1.05;85.45;103520.88;2055576;28;45698;-60
2022/02/27 04:53:35;;;;;;;;;;;;;;;-1.07;85.15;103523.41;2056376;28;20030;-60
2022/02/27 04:54:36;;;;;;;;;;;;;;;-1.07;85.12;103520.78;2055292;28;45258;-61
2022/02/27 04:55:38;;;;;;;;;;;;;;;-1.05;85.55;103523.53;2055398;28;43920;-60
2022/02/27 04:56:40;;;;;;;;;;;;;;;-1.13;85.24;103519.47;2055193;28;43151;-60
2022/02/27 04:57:41;;;;;;;;;;;;;;;-1.10;85.50;103511.78;2055456;28;46068;-61
2022/02/27 04:58:43;;;;;;;;;;;;;;;-1.15;85.13;103508.84;2055492;28;44192;-61
2022/02/27 04:59:44;;;;;;;;;;;;;;;-1.17;85.47;103513.09;2055334;28;46240;-60
2022/02/27 05:00:46;;;;;;;;;;;;;;;-1.21;85.62;103508.44;2055684;28;41703;-60
2022/02/27 05:01:48;;;;;;;;;;;;;;;-1.18;85.77;103511.28;2054524;28;45652;-60
2022/02/27 05:02:51;;;;;;;;;;;;;;;-1.22;85.33;103511.84;2055789;28;19930;-61
2022/02/27 05:03:56;;;;;;;;;;;;;;;-1.23;86.05;103505.69;2056598;28;19929;-60
2022/02/27 05:05:00;;;;;;;;;;;;;;;-1.27;85.78;103508.03;2055470;28;46274;-60
2022/02/27 05:06:01;;;;;;;;;;;;;;;-1.27;85.91;103513.31;2055302;28;45708;-60
2022/02/27 05:07:04;;;;;;;;;;;;;;;-1.26;86.10;103509.84;2055473;28;44020;-60
2022/02/27 05:08:06;;;;;;;;;;;;;;;-1.28;86.10;103512.38;2055152;28;43589;-60
2022/02/27 05:09:09;;;;;;;;;;;;;;;-1.31;86.23;103506.94;2055550;28;42875;-60
2022/02/27 05:10:12;;;;;;;;;;;;;;;-1.30;86.23;103515.72;2055067;28;44232;-60
2022/02/27 05:11:14;;;;;;;;;;;;;;;-1.31;86.32;103519.13;2055775;28;44589;-60
2022/02/27 05:12:15;;;;;;;;;;;;;;;-1.30;86.56;103513.09;2055226;28;45512;-61
2022/02/27 05:13:17;;;;;;;;;;;;;;;-1.29;86.52;103507.94;2055072;28;46775;-60
2022/02/27 05:14:18;;;;;;;;;;;;;;;-1.29;86.47;103521.06;2055414;28;39528;-61
2022/02/27 05:15:21;;;;;;;;;;;;;;;-1.29;86.52;103514.88;2055616;28;45737;-61
2022/02/27 05:16:23;;;;;;;;;;;;;;;-1.24;86.62;103513.47;2055310;28;45739;-61
2022/02/27 05:17:24;;;;;;;;;;;;;;;-1.28;86.24;103516.72;2055418;28;44380;-60
2022/02/27 05:18:26;;;;;;;;;;;;;;;-1.28;86.44;103515.00;2055165;28;46546;-61
2022/02/27 05:19:27;;;;;;;;;;;;;;;-1.26;86.09;103516.00;2055295;28;43087;-61
2022/02/27 05:20:29;;;;;;;;;;;;;;;-1.32;86.00;103507.72;2055208;28;42552;-60
2022/02/27 05:21:33;;;;;;;;;;;;;;;-1.28;86.23;103507.13;2055164;28;44458;-61